Time;durP1;ratioP1;P1;durP2;ratioP2;P2;SDS_P1;SDS_P2;PMS_P1;PMS_P2;Temp;Humidity;BMP_temperature;BMP_pressure;BME280_temperature;BME280_humidity;BME280_pressure;Samples;Min_cycle;Max_cycle;Signal;HPM_P1;HPM_P2
2022/04/29 00:02:11;;;;;;;10.87;7.43;;;;;;;;;;5089852;28;20397;-86
2022/04/29 00:04:38;;;;;;;10.70;6.87;;;;;;;;;;5088073;28;20400;-86
2022/04/29 00:07:06;;;;;;;9.70;8.23;;;;;;;;;;5089967;28;20444;-85
2022/04/29 00:09:32;;;;;;;12.17;8.97;;;;;;;;;;5089516;28;20436;-86
2022/04/29 00:11:59;;;;;;;8.30;7.20;;;;;;;;;;5088259;28;20436;-86
2022/04/29 00:14:25;;;;;;;9.10;7.43;;;;;;;;;;5088614;28;20425;-85
2022/04/29 00:16:51;;;;;;;9.27;6.80;;;;;;;;;;5089309;28;20448;-85
2022/04/29 00:19:18;;;;;;;7.80;6.20;;;;;;;;;;5088906;28;20468;-86
2022/04/29 00:21:45;;;;;;;9.40;7.40;;;;;;;;;;5089189;28;20427;-86
2022/04/29 00:24:11;;;;;;;11.53;7.50;;;;;;;;;;5089888;28;20428;-85
2022/04/29 00:26:38;;;;;;;11.10;7.40;;;;;;;;;;5089589;28;20409;-86
2022/04/29 00:29:05;;;;;;;9.90;6.97;;;;;;;;;;5090416;28;20428;-85
2022/04/29 00:31:31;;;;;;;9.30;7.33;;;;;;;;;;5089480;28;20409;-85
2022/04/29 00:33:58;;;;;;;10.10;7.40;;;;;;;;;;5090384;28;20468;-86
2022/04/29 00:36:24;;;;;;;8.70;7.60;;;;;;;;;;5095074;28;20456;-85
2022/04/29 00:38:50;;;;;;;12.53;7.97;;;;;;;;;;5093157;28;20413;-85
2022/04/29 00:41:20;;;;;;;9.90;6.57;;;;;;;;;;5090377;28;20458;-85
2022/04/29 00:43:46;;;;;;;8.60;7.67;;;;;;;;;;5089248;28;20401;-85
2022/04/29 00:46:12;;;;;;;10.33;6.97;;;;;;;;;;5089601;28;20405;-85
2022/04/29 00:48:38;;;;;;;9.50;7.33;;;;;;;;;;5089761;28;20944;-85
2022/04/29 00:51:04;;;;;;;9.10;6.93;;;;;;;;;;5089369;28;20405;-85
2022/04/29 00:53:30;;;;;;;8.53;7.57;;;;;;;;;;5089212;28;20412;-86
2022/04/29 00:55:57;;;;;;;11.33;7.97;;;;;;;;;;5088924;28;20448;-85
2022/04/29 00:58:33;;;;;;;9.07;7.00;;;;;;;;;;5088259;28;20488;-85
2022/04/29 01:01:00;;;;;;;9.83;6.30;;;;;;;;;;5088912;28;20389;-86
2022/04/29 01:03:28;;;;;;;10.63;7.03;;;;;;;;;;5088254;28;20848;-86
2022/04/29 01:05:54;;;;;;;7.27;6.57;;;;;;;;;;5088610;28;20771;-86
2022/04/29 01:08:20;;;;;;;11.87;7.00;;;;;;;;;;5127271;22;20500;-85
2022/04/29 01:10:47;;;;;;;8.23;6.77;;;;;;;;;;5095334;28;20428;-85
2022/04/29 01:13:13;;;;;;;8.40;6.60;;;;;;;;;;5085311;28;20440;-84
2022/04/29 01:15:39;;;;;;;11.03;7.50;;;;;;;;;;5105996;28;20983;-85
2022/04/29 01:18:08;;;;;;;7.57;6.63;;;;;;;;;;5101356;28;20507;-84
2022/04/29 01:20:34;;;;;;;9.60;7.33;;;;;;;;;;5083098;28;20435;-85
2022/04/29 01:23:08;;;;;;;10.30;6.73;;;;;;;;;;5066898;28;20439;-85
2022/04/29 01:25:34;;;;;;;16.53;6.70;;;;;;;;;;5085495;28;20401;-85
2022/04/29 01:28:00;;;;;;;8.63;6.57;;;;;;;;;;5085015;28;20409;-85
2022/04/29 01:30:26;;;;;;;10.40;7.67;;;;;;;;;;5065319;28;20405;-84
2022/04/29 01:32:53;;;;;;;9.80;7.03;;;;;;;;;;5066347;28;20416;-85
2022/04/29 01:35:20;;;;;;;9.00;7.23;;;;;;;;;;5084051;28;20465;-85
2022/04/29 01:37:46;;;;;;;7.93;7.13;;;;;;;;;;5083861;28;20872;-85
2022/04/29 01:40:14;;;;;;;10.30;7.63;;;;;;;;;;5068132;28;20436;-84
2022/04/29 01:42:41;;;;;;;13.23;8.10;;;;;;;;;;5084071;28;20397;-85
2022/04/29 01:45:10;;;;;;;9.90;7.47;;;;;;;;;;5082942;28;20409;-84
2022/04/29 01:47:37;;;;;;;19.20;7.77;;;;;;;;;;5082085;28;20407;-85
2022/04/29 01:50:04;;;;;;;8.60;7.60;;;;;;;;;;5082113;28;20428;-84
2022/04/29 01:52:30;;;;;;;11.70;7.97;;;;;;;;;;5084062;28;20452;-85
2022/04/29 01:54:56;;;;;;;10.90;7.67;;;;;;;;;;5083544;28;20405;-84
2022/04/29 01:57:22;;;;;;;9.33;7.80;;;;;;;;;;5083554;28;20448;-84
2022/04/29 01:59:48;;;;;;;11.67;7.73;;;;;;;;;;5084771;28;20428;-85
2022/04/29 02:02:14;;;;;;;7.70;6.87;;;;;;;;;;5082335;28;20405;-86
2022/04/29 02:04:40;;;;;;;8.67;7.77;;;;;;;;;;5084713;28;20405;-85
2022/04/29 02:07:07;;;;;;;12.00;7.07;;;;;;;;;;5062671;28;20412;-86
2022/04/29 02:09:33;;;;;;;8.03;7.17;;;;;;;;;;5083431;28;20882;-86
2022/04/29 02:12:05;;;;;;;8.67;7.70;;;;;;;;;;5068081;28;20409;-85
2022/04/29 02:14:36;;;;;;;8.57;7.03;;;;;;;;;;5082031;28;20385;-85
2022/04/29 02:17:02;;;;;;;8.20;7.40;;;;;;;;;;5081248;28;20437;-84
2022/04/29 02:19:28;;;;;;;9.40;7.87;;;;;;;;;;5083105;28;20416;-86
2022/04/29 02:21:55;;;;;;;7.73;6.70;;;;;;;;;;5063186;28;20409;-85
2022/04/29 02:24:21;;;;;;;9.40;7.40;;;;;;;;;;5083909;28;20400;-86
2022/04/29 02:26:47;;;;;;;8.60;7.20;;;;;;;;;;5083626;28;20485;-85
2022/04/29 02:29:13;;;;;;;10.23;7.67;;;;;;;;;;5068848;28;20432;-84
2022/04/29 02:31:39;;;;;;;11.03;7.50;;;;;;;;;;5086461;28;20411;-85
2022/04/29 02:34:05;;;;;;;11.40;8.37;;;;;;;;;;5084951;28;20815;-85
2022/04/29 02:36:31;;;;;;;8.90;7.23;;;;;;;;;;5085660;28;20448;-85
2022/04/29 02:38:58;;;;;;;7.73;6.70;;;;;;;;;;5100001;28;20416;-85
2022/04/29 02:41:24;;;;;;;9.10;7.63;;;;;;;;;;5104076;28;20421;-84
2022/04/29 02:43:50;;;;;;;8.27;6.90;;;;;;;;;;5103523;28;20416;-86
2022/04/29 02:46:16;;;;;;;8.40;7.10;;;;;;;;;;5096673;28;20403;-84
2022/04/29 02:48:43;;;;;;;11.63;7.57;;;;;;;;;;5072892;28;20446;-85
2022/04/29 02:51:10;;;;;;;11.90;8.30;;;;;;;;;;5087723;28;20404;-84
2022/04/29 02:53:36;;;;;;;9.20;8.20;;;;;;;;;;5084734;28;20415;-85
2022/04/29 02:56:02;;;;;;;8.63;6.80;;;;;;;;;;5066471;28;20448;-85
2022/04/29 02:58:29;;;;;;;8.90;7.17;;;;;;;;;;5071488;28;20494;-85
2022/04/29 03:00:56;;;;;;;8.93;8.00;;;;;;;;;;5067855;28;20877;-84
2022/04/29 03:03:22;;;;;;;8.77;7.93;;;;;;;;;;5083810;28;20411;-83
2022/04/29 03:05:48;;;;;;;7.43;6.50;;;;;;;;;;5088190;28;20408;-82
2022/04/29 03:08:14;;;;;;;11.30;6.80;;;;;;;;;;5078446;28;20469;-82
2022/04/29 03:10:40;;;;;;;11.40;7.30;;;;;;;;;;5100572;28;20399;-84
2022/04/29 03:13:06;;;;;;;7.53;6.70;;;;;;;;;;5103256;28;20415;-82
2022/04/29 03:15:33;;;;;;;9.37;6.33;;;;;;;;;;5104032;28;20408;-84
2022/04/29 03:20:44;;;;;;;9.33;6.90;;;;;;;;;;5104562;28;20439;-86
2022/04/29 03:23:10;;;;;;;8.17;6.47;;;;;;;;;;5086810;28;20410;-86
2022/04/29 03:25:37;;;;;;;8.97;6.87;;;;;;;;;;5086691;28;20411;-85
2022/04/29 03:28:06;;;;;;;8.70;7.00;;;;;;;;;;5104138;28;20396;-84
2022/04/29 03:30:33;;;;;;;9.40;7.47;;;;;;;;;;5104287;28;20401;-84
2022/04/29 03:33:00;;;;;;;13.43;7.37;;;;;;;;;;5099972;28;20446;-85
2022/04/29 03:35:26;;;;;;;8.53;7.37;;;;;;;;;;5084018;28;20382;-86
2022/04/29 03:37:53;;;;;;;8.63;7.40;;;;;;;;;;5083550;28;20433;-85
2022/04/29 03:40:22;;;;;;;9.33;8.43;;;;;;;;;;5081036;28;20401;-85
2022/04/29 03:42:49;;;;;;;8.03;6.87;;;;;;;;;;5080809;28;20405;-85
2022/04/29 03:45:15;;;;;;;7.70;6.97;;;;;;;;;;5063193;28;20421;-84
2022/04/29 03:47:42;;;;;;;9.33;7.17;;;;;;;;;;5063408;28;20405;-84
2022/04/29 03:50:08;;;;;;;9.50;6.80;;;;;;;;;;5063252;28;20497;-84
2022/04/29 03:52:35;;;;;;;7.47;6.50;;;;;;;;;;5080759;28;20484;-85
2022/04/29 03:55:01;;;;;;;9.60;7.17;;;;;;;;;;5080739;28;20443;-85
2022/04/29 03:57:27;;;;;;;7.97;6.83;;;;;;;;;;5080573;28;20462;-84
2022/04/29 03:59:53;;;;;;;8.80;7.90;;;;;;;;;;5063432;28;20452;-84
2022/04/29 04:02:19;;;;;;;10.07;7.13;;;;;;;;;;5080614;28;20493;-85
2022/04/29 04:04:46;;;;;;;8.00;7.00;;;;;;;;;;5080605;28;20427;-84
2022/04/29 04:07:12;;;;;;;9.80;7.10;;;;;;;;;;5080544;28;20389;-85
2022/04/29 04:09:39;;;;;;;7.50;6.70;;;;;;;;;;5062675;28;20471;-84
2022/04/29 04:12:05;;;;;;;8.20;7.07;;;;;;;;;;5063371;28;20405;-85
2022/04/29 04:14:31;;;;;;;8.20;7.40;;;;;;;;;;5080433;28;20413;-85
2022/04/29 04:16:58;;;;;;;11.40;8.03;;;;;;;;;;5062719;28;20461;-87
2022/04/29 04:19:24;;;;;;;8.40;7.10;;;;;;;;;;5078746;28;20441;-85
2022/04/29 04:21:51;;;;;;;7.60;6.77;;;;;;;;;;5080122;28;20557;-86
2022/04/29 04:24:18;;;;;;;13.80;8.00;;;;;;;;;;5062766;28;20410;-84
2022/04/29 04:26:44;;;;;;;9.77;7.53;;;;;;;;;;5080229;28;20401;-84
2022/04/29 04:29:10;;;;;;;10.50;7.70;;;;;;;;;;5062812;28;20433;-84
2022/04/29 04:31:37;;;;;;;14.80;9.00;;;;;;;;;;5080023;28;20488;-84
2022/04/29 04:34:49;;;;;;;8.40;7.10;;;;;;;;;;5080285;28;20414;-85
2022/04/29 04:36:52;;;;;;;11.90;7.70;;;;;;;;;;5079725;28;20457;-85
2022/04/29 04:39:18;;;;;;;10.87;8.10;;;;;;;;;;5062482;28;20437;-86
2022/04/29 04:41:48;;;;;;;11.67;7.67;;;;;;;;;;5079889;28;20408;-85
2022/04/29 04:44:14;;;;;;;11.50;8.13;;;;;;;;;;5079863;28;20394;-85
2022/04/29 04:46:40;;;;;;;14.33;7.93;;;;;;;;;;5079979;28;20468;-85
2022/04/29 04:49:06;;;;;;;9.43;7.40;;;;;;;;;;5079815;28;20492;-85
2022/04/29 04:51:33;;;;;;;12.90;7.27;;;;;;;;;;5079313;28;20409;-84
2022/04/29 04:53:59;;;;;;;9.20;7.57;;;;;;;;;;5079943;28;20393;-85
2022/04/29 04:56:26;;;;;;;7.40;6.60;;;;;;;;;;5079630;28;20468;-85
2022/04/29 04:58:52;;;;;;;7.60;6.50;;;;;;;;;;5079921;28;20436;-86
2022/04/29 05:01:19;;;;;;;9.80;6.20;;;;;;;;;;5080017;28;20469;-85
2022/04/29 05:03:45;;;;;;;10.23;6.13;;;;;;;;;;5079728;28;20389;-85
2022/04/29 05:06:11;;;;;;;7.77;6.37;;;;;;;;;;5079258;28;20424;-85
2022/04/29 05:08:37;;;;;;;8.03;6.10;;;;;;;;;;5067804;28;20465;-84
2022/04/29 05:11:03;;;;;;;8.03;6.80;;;;;;;;;;5096267;28;20420;-83
2022/04/29 05:13:29;;;;;;;9.73;6.93;;;;;;;;;;5098188;28;20404;-84
2022/04/29 05:15:55;;;;;;;12.80;7.23;;;;;;;;;;5061637;28;20471;-82
2022/04/29 05:18:21;;;;;;;8.77;7.70;;;;;;;;;;5078948;28;20409;-83
2022/04/29 05:20:48;;;;;;;7.53;6.00;;;;;;;;;;5079058;28;20420;-83
2022/04/29 05:23:14;;;;;;;10.50;7.30;;;;;;;;;;5087680;28;20389;-84
2022/04/29 05:25:40;;;;;;;9.07;7.00;;;;;;;;;;5078554;28;20421;-85
2022/04/29 05:28:07;;;;;;;8.33;6.73;;;;;;;;;;5080584;28;20227;-83
2022/04/29 05:30:33;;;;;;;12.17;8.03;;;;;;;;;;5079001;28;20424;-86
2022/04/29 05:32:59;;;;;;;11.90;7.40;;;;;;;;;;5079169;28;20415;-85
2022/04/29 05:35:25;;;;;;;14.80;7.63;;;;;;;;;;5083841;28;20441;-83
2022/04/29 05:37:52;;;;;;;10.90;7.27;;;;;;;;;;5085359;28;20527;-83
2022/04/29 05:43:02;;;;;;;9.57;7.83;;;;;;;;;;5080951;28;20381;-84
2022/04/29 05:45:29;;;;;;;9.50;7.63;;;;;;;;;;5098839;28;20413;-83
2022/04/29 05:47:55;;;;;;;9.77;7.40;;;;;;;;;;5098873;28;20405;-84
2022/04/29 05:50:21;;;;;;;10.63;8.27;;;;;;;;;;5099052;28;20396;-83
2022/04/29 05:52:48;;;;;;;8.70;7.60;;;;;;;;;;5098558;28;20405;-84
2022/04/29 05:55:14;;;;;;;10.93;7.67;;;;;;;;;;5081361;28;20413;-84
2022/04/29 05:57:40;;;;;;;8.87;6.77;;;;;;;;;;5098392;28;20455;-84
2022/04/29 06:00:07;;;;;;;11.10;8.70;;;;;;;;;;5098551;28;20436;-84
2022/04/29 06:02:39;;;;;;;10.60;7.57;;;;;;;;;;5079968;28;20401;-84
2022/04/29 06:05:05;;;;;;;10.30;7.53;;;;;;;;;;5081016;28;20432;-85
2022/04/29 06:07:31;;;;;;;10.93;7.60;;;;;;;;;;5081279;28;20421;-84
2022/04/29 06:09:57;;;;;;;8.90;7.10;;;;;;;;;;5080820;28;20479;-83
2022/04/29 06:12:24;;;;;;;8.00;7.20;;;;;;;;;;5098562;28;20404;-83
2022/04/29 06:14:50;;;;;;;10.90;7.97;;;;;;;;;;5098405;28;20426;-83
2022/04/29 06:17:16;;;;;;;11.40;7.63;;;;;;;;;;5098218;28;20444;-85
2022/04/29 06:19:42;;;;;;;10.85;7.65;;;;;;;;;;5097619;28;20700;-84
2022/04/29 06:22:08;;;;;;;13.50;7.77;;;;;;;;;;5079027;28;20166;-84
2022/04/29 06:24:34;;;;;;;11.57;6.50;;;;;;;;;;5097778;28;20397;-85
2022/04/29 06:27:01;;;;;;;10.20;9.20;;;;;;;;;;5097960;28;20404;-84
2022/04/29 06:29:28;;;;;;;12.13;7.70;;;;;;;;;;5097868;28;20462;-83
2022/04/29 06:31:54;;;;;;;11.57;6.93;;;;;;;;;;5080690;28;20405;-83
2022/04/29 06:34:20;;;;;;;7.93;5.90;;;;;;;;;;5080108;28;20893;-85
2022/04/29 06:36:46;;;;;;;10.73;7.50;;;;;;;;;;5095900;28;20453;-84
2022/04/29 06:39:12;;;;;;;10.73;7.43;;;;;;;;;;5096218;28;20508;-84
2022/04/29 06:41:40;;;;;;;14.93;7.47;;;;;;;;;;5097234;28;20424;-85
2022/04/29 06:44:06;;;;;;;8.50;6.83;;;;;;;;;;5098094;28;20379;-85
2022/04/29 06:46:32;;;;;;;11.60;7.00;;;;;;;;;;5079066;28;20424;-85
2022/04/29 06:48:59;;;;;;;9.00;6.23;;;;;;;;;;5098040;28;20426;-84
2022/04/29 06:51:25;;;;;;;12.80;6.97;;;;;;;;;;5080683;28;20416;-83
2022/04/29 06:53:51;;;;;;;10.87;6.53;;;;;;;;;;5098061;28;20396;-84
2022/04/29 06:56:18;;;;;;;7.03;5.63;;;;;;;;;;5080579;28;20527;-84
2022/04/29 06:58:44;;;;;;;8.80;5.63;;;;;;;;;;5096914;28;20459;-84
2022/04/29 07:01:10;;;;;;;13.33;6.97;;;;;;;;;;5086059;28;20433;-83
2022/04/29 07:03:39;;;;;;;7.83;6.53;;;;;;;;;;5077164;28;20396;-84
2022/04/29 07:06:06;;;;;;;12.13;6.50;;;;;;;;;;5077482;28;20450;-83
2022/04/29 07:08:32;;;;;;;9.53;6.87;;;;;;;;;;5075692;28;20465;-84
2022/04/29 07:10:58;;;;;;;8.70;6.60;;;;;;;;;;5076230;28;20390;-84
2022/04/29 07:13:24;;;;;;;9.13;6.30;;;;;;;;;;5071401;28;20408;-84
2022/04/29 07:15:50;;;;;;;7.77;6.13;;;;;;;;;;5101638;28;20395;-85
2022/04/29 07:18:17;;;;;;;14.03;6.60;;;;;;;;;;5083468;28;20427;-84
2022/04/29 07:20:43;;;;;;;12.23;5.13;;;;;;;;;;5100448;28;20420;-84
2022/04/29 07:25:53;;;;;;;6.00;4.10;;;;;;;;;;5091315;28;20464;-85
2022/04/29 07:28:21;;;;;;;8.13;4.80;;;;;;;;;;5071792;28;20402;-86
2022/04/29 07:30:47;;;;;;;7.30;4.90;;;;;;;;;;5093717;28;20499;-86
2022/04/29 07:33:13;;;;;;;7.63;4.80;;;;;;;;;;5097897;28;20423;-83
2022/04/29 07:44:01;;;;;;;8.90;5.20;;;;;;;;;;5089758;28;20473;-84
2022/04/29 07:46:27;;;;;;;10.00;4.93;;;;;;;;;;5097272;28;20415;-82
2022/04/29 07:48:54;;;;;;;6.37;4.77;;;;;;;;;;5091785;28;20415;-83
2022/04/29 07:51:38;;;;;;;5.70;4.10;;;;;;;;;;5108560;28;20407;-83
2022/04/29 07:54:07;;;;;;;5.77;4.90;;;;;;;;;;5075031;28;20424;-83
2022/04/29 07:56:33;;;;;;;5.23;3.83;;;;;;;;;;5086078;28;20444;-83
2022/04/29 07:58:59;;;;;;;9.00;5.33;;;;;;;;;;5105277;28;20419;-82
2022/04/29 08:01:26;;;;;;;5.60;4.83;;;;;;;;;;5110605;28;20408;-81
2022/04/29 08:03:53;;;;;;;5.00;3.63;;;;;;;;;;5091121;28;20429;-82
2022/04/29 08:06:19;;;;;;;7.83;4.50;;;;;;;;;;5090919;28;20927;-86
2022/04/29 08:08:46;;;;;;;9.43;4.87;;;;;;;;;;5102992;28;20443;-83
2022/04/29 08:11:12;;;;;;;5.33;4.17;;;;;;;;;;5085343;28;20416;-83
2022/04/29 08:13:38;;;;;;;6.10;4.73;;;;;;;;;;5084527;28;20425;-83
2022/04/29 08:16:05;;;;;;;5.43;3.90;;;;;;;;;;5097254;28;20455;-83
2022/04/29 08:18:32;;;;;;;8.50;3.90;;;;;;;;;;5102589;28;20404;-83
2022/04/29 08:20:58;;;;;;;5.00;3.83;;;;;;;;;;5102466;28;20518;-84
2022/04/29 08:23:24;;;;;;;9.20;4.90;;;;;;;;;;5090597;28;20416;-83
2022/04/29 08:25:50;;;;;;;6.77;4.27;;;;;;;;;;5082127;28;20801;-83
2022/04/29 08:28:16;;;;;;;5.67;4.00;;;;;;;;;;5078838;28;20538;-82
2022/04/29 08:30:42;;;;;;;6.07;3.80;;;;;;;;;;5086858;28;20411;-83
2022/04/29 08:33:13;;;;;;;5.17;3.90;;;;;;;;;;5082326;28;20480;-83
2022/04/29 08:35:40;;;;;;;8.87;4.20;;;;;;;;;;5101834;28;20442;-83
2022/04/29 08:38:10;;;;;;;6.47;4.60;;;;;;;;;;5102454;28;20415;-83
2022/04/29 08:40:40;;;;;;;4.87;4.00;;;;;;;;;;5090687;28;20407;-83
2022/04/29 08:43:06;;;;;;;9.40;4.50;;;;;;;;;;5092318;28;20423;-84
2022/04/29 08:45:32;;;;;;;7.07;4.70;;;;;;;;;;5098656;28;20439;-83
2022/04/29 08:47:59;;;;;;;4.20;3.30;;;;;;;;;;5098047;28;20447;-83
2022/04/29 08:50:26;;;;;;;5.20;3.97;;;;;;;;;;5091186;28;20506;-83
2022/04/29 08:52:54;;;;;;;7.10;3.70;;;;;;;;;;5088549;28;20492;-84
2022/04/29 09:00:50;;;;;;;4.80;3.67;;;;;;;;;;5098881;28;20419;-83
2022/04/29 09:03:16;;;;;;;4.83;4.27;;;;;;;;;;5068251;28;20413;-83
2022/04/29 09:05:43;;;;;;;6.20;4.57;;;;;;;;;;5065615;28;20421;-83
2022/04/29 09:08:14;;;;;;;4.60;3.30;;;;;;;;;;5083171;28;20403;-84
2022/04/29 09:10:48;;;;;;;6.20;3.60;;;;;;;;;;5096112;28;20443;-83
2022/04/29 09:13:15;;;;;;;5.70;4.00;;;;;;;;;;5099251;28;20504;-83
2022/04/29 09:15:47;;;;;;;6.07;4.23;;;;;;;;;;5090928;28;20432;-83
2022/04/29 09:18:14;;;;;;;4.17;3.60;;;;;;;;;;5082716;28;20424;-85
2022/04/29 09:20:41;;;;;;;6.40;3.77;;;;;;;;;;5087221;28;20413;-85
2022/04/29 09:23:10;;;;;;;5.13;3.33;;;;;;;;;;5098112;28;20419;-86
2022/04/29 09:25:39;;;;;;;5.83;3.67;;;;;;;;;;5096263;28;20435;-84
2022/04/29 09:28:05;;;;;;;7.97;3.67;;;;;;;;;;5084385;28;20407;-85
2022/04/29 09:30:41;;;;;;;5.87;4.23;;;;;;;;;;5088178;28;20406;-86
2022/04/29 09:33:18;;;;;;;4.23;3.30;;;;;;;;;;5096082;28;20431;-83
2022/04/29 09:35:45;;;;;;;5.40;4.33;;;;;;;;;;5114045;28;20396;-87
2022/04/29 09:40:57;;;;;;;5.70;4.50;;;;;;;;;;5106573;28;20438;-86
2022/04/29 09:43:40;;;;;;;6.20;3.57;;;;;;;;;;5106541;28;20822;-86
2022/04/29 09:46:10;;;;;;;7.10;4.37;;;;;;;;;;5099065;28;20414;-87
2022/04/29 09:48:56;;;;;;;5.23;4.43;;;;;;;;;;5107610;28;20411;-87
2022/04/29 09:51:41;;;;;;;6.23;4.70;;;;;;;;;;5107146;28;20402;-86
2022/04/29 09:54:16;;;;;;;8.53;4.17;;;;;;;;;;5107938;28;20415;-87
2022/04/29 09:56:44;;;;;;;11.20;4.17;;;;;;;;;;5106746;28;20447;-87
2022/04/29 09:59:10;;;;;;;5.53;4.07;;;;;;;;;;5107423;28;20439;-86
2022/04/29 10:01:36;;;;;;;6.17;4.40;;;;;;;;;;5107097;28;20411;-86
2022/04/29 10:04:02;;;;;;;7.60;4.83;;;;;;;;;;5107983;28;20472;-85
2022/04/29 10:06:29;;;;;;;8.00;4.80;;;;;;;;;;5108356;28;20404;-86
2022/04/29 10:08:59;;;;;;;7.90;4.20;;;;;;;;;;5106495;28;20410;-86
2022/04/29 10:11:26;;;;;;;6.23;4.67;;;;;;;;;;5107394;28;20431;-87
2022/04/29 10:13:53;;;;;;;5.30;4.67;;;;;;;;;;5106702;28;20856;-86
2022/04/29 10:16:20;;;;;;;6.70;5.07;;;;;;;;;;5089389;28;20443;-86
2022/04/29 10:21:47;;;;;;;7.70;4.10;;;;;;;;;;5106808;28;20390;-85
2022/04/29 10:24:13;;;;;;;6.53;4.90;;;;;;;;;;5106010;28;20967;-86
2022/04/29 10:26:40;;;;;;;6.33;3.97;;;;;;;;;;5105669;28;20412;-86
2022/04/29 10:29:09;;;;;;;8.17;4.17;;;;;;;;;;5105634;28;20403;-86
2022/04/29 10:31:35;;;;;;;6.63;4.40;;;;;;;;;;5105937;28;20419;-87
2022/04/29 10:34:20;;;;;;;7.20;4.40;;;;;;;;;;5092810;28;20411;-87
2022/04/29 10:36:47;;;;;;;18.47;4.60;;;;;;;;;;5111937;28;20439;-86
2022/04/29 10:39:21;;;;;;;5.17;3.40;;;;;;;;;;5098482;28;20415;-86
2022/04/29 10:42:08;;;;;;;5.70;4.90;;;;;;;;;;5104400;28;20397;-85
2022/04/29 10:44:34;;;;;;;8.47;4.00;;;;;;;;;;5101538;28;20427;-86
2022/04/29 10:47:41;;;;;;;11.60;4.00;;;;;;;;;;5101902;28;20451;-86
2022/04/29 10:50:42;;;;;;;9.73;4.37;;;;;;;;;;5004425;28;20447;-85
2022/04/29 10:53:12;;;;;;;6.40;3.50;;;;;;;;;;5064659;28;20932;-85
2022/04/29 10:55:38;;;;;;;7.77;3.50;;;;;;;;;;5099432;28;20423;-86
2022/04/29 10:58:05;;;;;;;4.40;3.60;;;;;;;;;;5097879;28;20435;-86
2022/04/29 11:00:33;;;;;;;5.17;3.90;;;;;;;;;;5094519;28;20507;-84
2022/04/29 11:03:28;;;;;;;4.57;3.73;;;;;;;;;;5105369;28;20408;-86
2022/04/29 11:06:06;;;;;;;7.77;4.03;;;;;;;;;;5074929;28;20420;-86
2022/04/29 11:08:32;;;;;;;6.53;3.73;;;;;;;;;;5089736;28;20443;-85
2022/04/29 11:10:59;;;;;;;4.83;3.40;;;;;;;;;;5116423;28;20426;-85
2022/04/29 11:13:27;;;;;;;7.43;3.60;;;;;;;;;;5111582;28;20412;-87
2022/04/29 11:15:54;;;;;;;4.90;3.77;;;;;;;;;;5109801;28;20412;-86
2022/04/29 11:18:25;;;;;;;5.23;3.37;;;;;;;;;;5108617;28;20429;-86
2022/04/29 11:20:56;;;;;;;5.57;3.10;;;;;;;;;;5108997;28;20380;-87
2022/04/29 11:26:21;;;;;;;6.40;3.53;;;;;;;;;;5109540;28;20422;-87
2022/04/29 11:28:54;;;;;;;7.10;4.70;;;;;;;;;;5111971;28;20396;-87
2022/04/29 11:31:20;;;;;;;9.00;4.30;;;;;;;;;;5112445;28;20396;-86
2022/04/29 11:33:46;;;;;;;6.10;4.07;;;;;;;;;;5091271;28;20430;-86
2022/04/29 11:36:13;;;;;;;6.47;4.00;;;;;;;;;;5088977;28;20483;-86
2022/04/29 11:38:46;;;;;;;6.60;4.00;;;;;;;;;;5108406;28;20408;-87
2022/04/29 11:41:20;;;;;;;4.50;3.30;;;;;;;;;;5108290;28;20403;-87
2022/04/29 11:43:47;;;;;;;4.83;3.00;;;;;;;;;;5106199;28;20426;-86
2022/04/29 11:46:14;;;;;;;15.90;5.90;;;;;;;;;;5106273;28;20426;-86
2022/04/29 11:48:49;;;;;;;7.10;3.70;;;;;;;;;;5089399;28;20450;-87
2022/04/29 11:51:16;;;;;;;9.97;3.07;;;;;;;;;;5108927;28;20913;-87
2022/04/29 11:53:54;;;;;;;5.30;3.50;;;;;;;;;;5094919;28;20472;-87
2022/04/29 11:56:23;;;;;;;4.97;3.47;;;;;;;;;;5094266;28;20508;-87
2022/04/29 11:58:52;;;;;;;5.27;3.63;;;;;;;;;;5103894;28;20475;-87
2022/04/29 12:01:20;;;;;;;8.23;4.03;;;;;;;;;;5106256;28;20426;-87
2022/04/29 12:03:49;;;;;;;4.77;3.17;;;;;;;;;;5107301;28;20415;-86
2022/04/29 12:06:16;;;;;;;6.93;3.63;;;;;;;;;;5105063;28;20396;-86
2022/04/29 12:08:42;;;;;;;8.70;3.73;;;;;;;;;;5104913;28;20395;-87
2022/04/29 12:11:09;;;;;;;5.67;4.03;;;;;;;;;;5107673;28;20398;-86
2022/04/29 12:13:38;;;;;;;4.43;3.97;;;;;;;;;;5106373;28;20418;-86
2022/04/29 12:16:05;;;;;;;7.27;4.30;;;;;;;;;;5105652;28;20797;-87
2022/04/29 12:18:57;;;;;;;7.23;4.10;;;;;;;;;;5092309;28;20415;-87
2022/04/29 12:21:24;;;;;;;10.63;5.10;;;;;;;;;;5084049;28;20415;-86
2022/04/29 12:23:51;;;;;;;5.90;4.77;;;;;;;;;;5105860;28;20428;-87
2022/04/29 12:26:17;;;;;;;5.30;3.80;;;;;;;;;;5105956;28;20395;-87
2022/04/29 12:28:43;;;;;;;7.33;5.03;;;;;;;;;;5105938;28;20404;-87
2022/04/29 12:36:53;;;;;;;7.93;4.70;;;;;;;;;;5112203;28;20467;-84
2022/04/29 12:39:24;;;;;;;5.93;4.27;;;;;;;;;;5105128;28;20425;-86
2022/04/29 12:42:06;;;;;;;10.73;5.50;;;;;;;;;;5093976;28;20890;-85
2022/04/29 12:47:40;;;;;;;6.73;5.97;;;;;;;;;;5095223;28;20862;-86
2022/04/29 12:50:35;;;;;;;8.00;5.87;;;;;;;;;;5104520;28;20403;-85
2022/04/29 12:53:05;;;;;;;7.00;5.90;;;;;;;;;;5070487;28;20428;-85
2022/04/29 12:55:34;;;;;;;6.87;5.20;;;;;;;;;;5085804;28;20429;-83
2022/04/29 12:58:04;;;;;;;9.40;5.00;;;;;;;;;;5099838;28;20504;-83
2022/04/29 13:00:30;;;;;;;11.20;4.93;;;;;;;;;;5119664;28;20431;-84
2022/04/29 13:03:04;;;;;;;5.57;4.10;;;;;;;;;;5106066;28;20514;-83
2022/04/29 13:05:31;;;;;;;12.07;4.23;;;;;;;;;;5114090;28;20442;-84
2022/04/29 13:07:57;;;;;;;5.40;4.20;;;;;;;;;;5109682;28;20428;-84
2022/04/29 13:10:23;;;;;;;6.50;4.40;;;;;;;;;;5098832;28;20423;-82
2022/04/29 13:12:50;;;;;;;6.90;5.50;;;;;;;;;;5085528;28;20440;-84
2022/04/29 13:15:17;;;;;;;5.93;5.07;;;;;;;;;;5069600;28;20540;-84
2022/04/29 13:17:43;;;;;;;6.83;4.03;;;;;;;;;;5066603;28;21036;-85
2022/04/29 13:20:09;;;;;;;5.70;3.87;;;;;;;;;;5085657;28;20421;-85
2022/04/29 13:22:37;;;;;;;9.60;4.60;;;;;;;;;;5067110;28;20427;-85
2022/04/29 13:25:05;;;;;;;5.70;4.23;;;;;;;;;;5085425;28;20529;-84
2022/04/29 13:27:31;;;;;;;6.30;4.33;;;;;;;;;;5067606;28;20408;-85
2022/04/29 13:29:57;;;;;;;5.80;5.03;;;;;;;;;;5091076;28;20424;-85
2022/04/29 13:32:23;;;;;;;6.27;4.17;;;;;;;;;;5105133;28;20404;-84
2022/04/29 13:34:57;;;;;;;5.57;4.27;;;;;;;;;;5097442;28;20436;-85
2022/04/29 13:37:24;;;;;;;7.23;5.27;;;;;;;;;;5108536;28;20522;-83
2022/04/29 13:39:50;;;;;;;9.30;4.90;;;;;;;;;;5109406;28;20423;-82
2022/04/29 13:42:16;;;;;;;6.43;4.27;;;;;;;;;;5101208;28;20479;-86
2022/04/29 13:44:43;;;;;;;5.43;4.93;;;;;;;;;;5104285;28;20424;-84
2022/04/29 13:47:10;;;;;;;5.90;4.27;;;;;;;;;;5072057;28;20427;-85
2022/04/29 13:49:36;;;;;;;7.80;5.47;;;;;;;;;;5084183;28;20774;-84
2022/04/29 13:53:07;;;;;;;6.40;5.50;;;;;;;;;;5082620;28;20821;-85
2022/04/29 13:54:48;;;;;;;11.00;4.87;;;;;;;;;;5100856;28;20454;-85
2022/04/29 13:57:14;;;;;;;7.77;4.67;;;;;;;;;;5101405;28;20451;-85
2022/04/29 13:59:40;;;;;;;6.87;4.47;;;;;;;;;;5104853;28;20555;-85
2022/04/29 14:02:06;;;;;;;7.87;4.77;;;;;;;;;;5094770;28;20425;-86
2022/04/29 14:04:32;;;;;;;6.47;4.57;;;;;;;;;;5094414;28;20444;-85
2022/04/29 14:06:59;;;;;;;6.50;4.83;;;;;;;;;;5089327;28;20457;-85
2022/04/29 14:09:25;;;;;;;7.00;5.10;;;;;;;;;;5082569;28;20948;-85
2022/04/29 14:11:51;;;;;;;9.93;5.70;;;;;;;;;;5097345;28;20973;-84
2022/04/29 14:14:17;;;;;;;10.02;5.45;;;;;;;;;;5088938;28;20418;-84
2022/04/29 14:16:43;;;;;;;5.17;4.67;;;;;;;;;;5107534;28;20189;-84
2022/04/29 14:19:09;;;;;;;8.47;5.60;;;;;;;;;;5131461;22;20415;-81
2022/04/29 14:21:35;;;;;;;7.63;4.83;;;;;;;;;;5051835;28;20473;-82
2022/04/29 14:24:01;;;;;;;5.13;4.63;;;;;;;;;;5063981;28;20496;-82
2022/04/29 14:26:27;;;;;;;7.43;5.30;;;;;;;;;;5070294;28;20420;-82
2022/04/29 14:28:53;;;;;;;6.83;5.17;;;;;;;;;;5069316;28;20171;-82
2022/04/29 14:31:19;;;;;;;5.63;5.10;;;;;;;;;;5068467;28;20479;-83
2022/04/29 14:33:46;;;;;;;5.63;4.50;;;;;;;;;;5066198;28;20453;-83
2022/04/29 14:36:13;;;;;;;6.43;5.10;;;;;;;;;;5045283;28;20461;-82
2022/04/29 14:38:39;;;;;;;5.23;4.67;;;;;;;;;;5062483;28;20433;-83
2022/04/29 14:41:05;;;;;;;7.10;5.43;;;;;;;;;;5064315;28;20422;-82
2022/04/29 14:43:31;;;;;;;6.60;4.90;;;;;;;;;;5041351;28;20425;-83
2022/04/29 14:45:57;;;;;;;6.33;5.23;;;;;;;;;;5059073;28;20428;-82
2022/04/29 14:48:23;;;;;;;7.53;5.13;;;;;;;;;;5043132;28;20410;-82
2022/04/29 14:50:51;;;;;;;6.70;5.43;;;;;;;;;;5067846;28;20436;-82
2022/04/29 14:53:17;;;;;;;6.50;4.90;;;;;;;;;;5062984;28;20416;-81
2022/04/29 14:55:43;;;;;;;5.90;4.63;;;;;;;;;;5073204;28;20418;-82
2022/04/29 14:58:09;;;;;;;11.10;4.63;;;;;;;;;;5069318;28;20474;-82
2022/04/29 15:00:35;;;;;;;6.67;5.17;;;;;;;;;;5062206;28;20785;-83
2022/04/29 15:03:01;;;;;;;6.20;4.80;;;;;;;;;;5065275;28;20795;-82
2022/04/29 15:05:27;;;;;;;9.40;5.23;;;;;;;;;;5064216;28;20897;-83
2022/04/29 15:07:53;;;;;;;7.10;5.40;;;;;;;;;;5060688;28;20405;-81
2022/04/29 15:15:50;;;;;;;6.63;6.00;;;;;;;;;;5062362;28;20389;-81
2022/04/29 15:18:19;;;;;;;9.37;5.40;;;;;;;;;;5063002;28;20545;-82
2022/04/29 15:20:46;;;;;;;8.10;5.83;;;;;;;;;;5044680;28;20469;-82
2022/04/29 15:23:12;;;;;;;7.17;5.70;;;;;;;;;;5062521;28;20497;-81
2022/04/29 15:25:38;;;;;;;7.20;6.27;;;;;;;;;;5063765;28;20409;-82
2022/04/29 15:28:04;;;;;;;6.40;5.50;;;;;;;;;;5063869;28;20408;-81
2022/04/29 15:30:47;;;;;;;5.90;5.30;;;;;;;;;;5063516;28;20437;-81